Time;durP1;ratioP1;P1;durP2;ratioP2;P2;SDS_P1;SDS_P2;PMS_P1;PMS_P2;Temp;Humidity;BMP_temperature;BMP_pressure;BME280_temperature;BME280_humidity;BME280_pressure;Samples;Min_cycle;Max_cycle;Signal;HPM_P1;HPM_P2
2021/06/26 00:01:42;;;;;;;12.93;8.75;;;;;;;15.97;69.61;101460.86;1769868;80;21569;-84
2021/06/26 00:04:10;;;;;;;12.47;9.08;;;;;;;15.97;69.69;101461.74;1769878;81;22433;-84
2021/06/26 00:06:37;;;;;;;14.70;8.70;;;;;;;15.98;69.77;101463.55;1769919;79;21492;-83
2021/06/26 00:09:04;;;;;;;11.33;9.50;;;;;;;15.99;69.78;101457.37;1769900;81;20982;-84
2021/06/26 00:11:31;;;;;;;13.93;9.20;;;;;;;15.99;69.75;101457.79;1769607;80;21022;-84
2021/06/26 00:13:58;;;;;;;12.65;8.95;;;;;;;15.97;69.77;101455.55;1770048;80;21031;-84
2021/06/26 00:16:25;;;;;;;16.35;9.28;;;;;;;15.98;69.86;101456.91;1770209;80;22387;-85
2021/06/26 00:18:52;;;;;;;13.85;8.78;;;;;;;15.99;69.91;101449.41;1769977;80;21018;-83
2021/06/26 00:21:18;;;;;;;11.45;8.40;;;;;;;15.98;69.91;101446.28;1769854;80;21157;-83
2021/06/26 00:23:45;;;;;;;11.40;9.63;;;;;;;15.98;69.96;101442.30;1769905;80;20959;-84
2021/06/26 00:26:12;;;;;;;11.60;8.43;;;;;;;15.95;70.04;101443.58;1770137;81;20967;-87
2021/06/26 00:28:39;;;;;;;10.32;8.70;;;;;;;15.92;70.09;101442.23;1770085;81;21780;-85
2021/06/26 00:31:05;;;;;;;11.90;8.80;;;;;;;15.88;70.16;101440.41;1769932;80;21034;-85
2021/06/26 00:33:32;;;;;;;11.33;9.25;;;;;;;15.86;70.21;101440.79;1769969;80;20988;-85
2021/06/26 00:35:59;;;;;;;17.70;9.18;;;;;;;15.83;70.31;101444.75;1770105;80;22202;-85
2021/06/26 00:38:25;;;;;;;20.15;9.38;;;;;;;15.80;70.43;101446.90;1769989;80;21126;-84
2021/06/26 00:40:55;;;;;;;14.83;8.93;;;;;;;15.78;70.52;101456.61;1769767;79;21677;-84
2021/06/26 00:43:22;;;;;;;10.60;8.80;;;;;;;15.77;70.59;101458.82;1769930;81;21401;-84
2021/06/26 00:45:48;;;;;;;9.63;8.18;;;;;;;15.73;70.64;101461.86;1770032;80;20991;-85
2021/06/26 00:48:16;;;;;;;13.35;8.90;;;;;;;15.71;70.70;101458.67;1784573;79;21516;-86
2021/06/26 00:50:42;;;;;;;12.50;9.45;;;;;;;15.68;70.73;101454.66;1816582;78;21027;-85
2021/06/26 00:53:09;;;;;;;12.33;9.03;;;;;;;15.66;70.72;101459.06;1816520;78;21805;-86
2021/06/26 00:55:40;;;;;;;12.85;9.65;;;;;;;15.58;70.79;101460.68;1816398;79;21449;-86
2021/06/26 00:58:07;;;;;;;18.15;9.53;;;;;;;15.53;70.98;101463.27;1816835;79;21014;-86
2021/06/26 01:00:34;;;;;;;10.15;8.70;;;;;;;15.50;71.03;101468.52;1816816;79;21135;-86
2021/06/26 01:03:03;;;;;;;11.25;8.50;;;;;;;15.47;71.22;101473.80;1816664;79;20999;-85
2021/06/26 01:05:32;;;;;;;10.88;8.50;;;;;;;15.45;71.35;101480.41;1816869;78;21995;-85
2021/06/26 01:07:59;;;;;;;11.95;8.88;;;;;;;15.47;71.47;101480.44;1817007;79;21066;-85
2021/06/26 01:10:27;;;;;;;18.07;9.50;;;;;;;15.50;71.47;101481.79;1816549;79;21014;-85
2021/06/26 01:12:54;;;;;;;13.40;9.75;;;;;;;15.53;71.44;101487.16;1816683;78;21034;-85
2021/06/26 01:15:21;;;;;;;14.15;8.93;;;;;;;15.54;71.37;101488.52;1816603;78;20974;-84
2021/06/26 01:17:48;;;;;;;13.28;9.10;;;;;;;15.53;71.32;101482.73;1816852;78;21863;-84
2021/06/26 01:20:15;;;;;;;13.40;9.60;;;;;;;15.52;71.23;101486.27;1816737;79;21010;-87
2021/06/26 01:22:46;;;;;;;11.12;9.23;;;;;;;15.50;71.09;101486.69;1777915;80;21037;-86
2021/06/26 01:25:17;;;;;;;12.28;9.13;;;;;;;15.46;71.07;101487.47;1778037;80;21539;-84
2021/06/26 01:27:44;;;;;;;10.60;9.23;;;;;;;15.42;71.08;101488.30;1777981;80;21006;-84
2021/06/26 01:30:13;;;;;;;17.45;9.63;;;;;;;15.39;71.14;101486.02;1778010;80;22433;-85
2021/06/26 01:32:40;;;;;;;10.72;8.55;;;;;;;15.36;71.19;101486.88;1777859;80;20970;-88
2021/06/26 01:35:09;;;;;;;11.48;9.60;;;;;;;15.32;71.25;101480.63;1778061;80;20975;-87
2021/06/26 01:37:41;;;;;;;13.70;9.20;;;;;;;15.31;71.27;101477.50;1777966;80;21025;-84
2021/06/26 01:40:09;;;;;;;12.03;9.38;;;;;;;15.27;71.21;101474.33;1776968;80;20979;-83
2021/06/26 01:42:36;;;;;;;12.03;9.48;;;;;;;15.25;71.25;101468.11;1777923;80;21702;-83
2021/06/26 01:45:05;;;;;;;10.18;9.08;;;;;;;15.22;71.29;101473.39;1777907;80;20994;-83
2021/06/26 01:47:31;;;;;;;11.90;9.95;;;;;;;15.19;71.34;101468.02;1777837;80;21046;-86
2021/06/26 01:49:58;;;;;;;13.15;8.95;;;;;;;15.18;71.41;101468.87;1777372;80;21213;-87
2021/06/26 01:52:25;;;;;;;15.08;9.43;;;;;;;15.15;71.42;101467.07;1740933;82;21033;-84
2021/06/26 01:54:52;;;;;;;11.75;9.33;;;;;;;15.14;71.52;101469.24;1778235;80;21792;-86
2021/06/26 01:57:18;;;;;;;11.50;9.25;;;;;;;15.15;71.58;101474.14;1778433;80;21034;-84
2021/06/26 01:59:46;;;;;;;11.53;9.63;;;;;;;15.17;71.69;101473.73;1778428;80;21017;-84
2021/06/26 02:02:13;;;;;;;13.68;9.65;;;;;;;15.23;71.80;101479.13;1778559;80;21057;-85
2021/06/26 02:04:39;;;;;;;12.85;9.28;;;;;;;15.29;71.85;101480.55;1778550;80;21045;-84
2021/06/26 02:07:06;;;;;;;11.22;9.03;;;;;;;15.36;71.89;101479.80;1778501;80;21772;-86
2021/06/26 02:09:33;;;;;;;13.53;9.23;;;;;;;15.44;71.91;101473.30;1778576;80;21045;-85
2021/06/26 02:11:59;;;;;;;14.90;9.20;;;;;;;15.51;71.91;101469.00;1778617;80;21027;-85
2021/06/26 02:14:26;;;;;;;12.98;9.40;;;;;;;15.55;71.80;101465.52;1778852;80;21119;-84
2021/06/26 02:16:53;;;;;;;11.15;9.20;;;;;;;15.59;71.79;101467.34;1778743;80;20987;-84
2021/06/26 02:19:19;;;;;;;14.33;8.95;;;;;;;15.64;71.83;101468.32;1778646;80;21683;-84
2021/06/26 02:21:46;;;;;;;12.13;9.23;;;;;;;15.72;71.83;101475.07;1778464;80;21177;-83
2021/06/26 02:24:13;;;;;;;9.95;8.73;;;;;;;15.80;71.84;101476.55;1778569;80;21018;-84
2021/06/26 02:26:39;;;;;;;13.40;9.03;;;;;;;15.87;71.73;101476.66;1778560;80;21007;-83
2021/06/26 02:29:06;;;;;;;11.12;9.55;;;;;;;15.94;71.71;101476.33;1778556;80;21030;-83
2021/06/26 02:31:33;;;;;;;11.63;9.60;;;;;;;16.00;71.69;101480.39;1778503;80;21735;-81
2021/06/26 02:33:59;;;;;;;11.25;9.08;;;;;;;16.08;71.65;101490.67;1778323;80;21014;-83
2021/06/26 02:36:26;;;;;;;13.15;8.73;;;;;;;16.17;71.62;101491.69;1778643;80;21002;-84
2021/06/26 02:38:53;;;;;;;16.40;8.70;;;;;;;16.27;71.56;101492.26;1778553;80;21034;-84
2021/06/26 02:41:21;;;;;;;12.40;8.68;;;;;;;16.37;71.46;101483.55;1778621;80;21020;-84
2021/06/26 02:43:50;;;;;;;16.15;9.38;;;;;;;16.43;71.30;101474.77;1741548;81;22574;-85
2021/06/26 02:46:17;;;;;;;11.35;8.98;;;;;;;16.46;71.13;101469.06;1778214;80;20991;-85
2021/06/26 02:48:44;;;;;;;14.25;8.78;;;;;;;16.55;71.13;101475.34;1776198;79;21047;-84
2021/06/26 02:51:10;;;;;;;15.38;8.65;;;;;;;16.63;71.02;101476.31;1770103;80;20940;-83
2021/06/26 02:53:37;;;;;;;15.23;8.98;;;;;;;16.71;70.99;101487.50;1770118;80;20990;-83
2021/06/26 02:56:04;;;;;;;10.30;8.38;;;;;;;16.79;70.86;101490.70;1769708;80;21883;-83
2021/06/26 02:58:31;;;;;;;10.23;8.55;;;;;;;16.88;70.73;101497.03;1769926;80;21046;-81
2021/06/26 03:00:57;;;;;;;16.23;9.63;;;;;;;16.98;70.62;101499.80;1769997;80;20975;-83
2021/06/26 03:03:24;;;;;;;11.50;7.90;;;;;;;17.06;70.47;101500.76;1770043;80;21233;-82
2021/06/26 03:05:51;;;;;;;10.80;8.28;;;;;;;17.14;70.30;101496.88;1770020;79;20994;-82
2021/06/26 03:08:18;;;;;;;11.83;8.20;;;;;;;17.18;70.10;101486.71;1769829;80;21737;-83
2021/06/26 03:10:44;;;;;;;11.53;8.00;;;;;;;17.22;70.01;101497.83;1770237;80;20972;-83
2021/06/26 03:13:11;;;;;;;12.98;8.70;;;;;;;17.29;70.00;101497.02;1770006;80;20939;-82
2021/06/26 03:15:38;;;;;;;13.10;8.10;;;;;;;17.34;69.95;101497.92;1769853;80;21089;-82
2021/06/26 03:18:05;;;;;;;11.43;8.55;;;;;;;17.43;69.96;101509.10;1769937;81;21456;-81
2021/06/26 03:20:31;;;;;;;11.20;8.00;;;;;;;17.53;69.86;101506.08;1769878;80;22544;-81
2021/06/26 03:22:58;;;;;;;10.08;7.80;;;;;;;17.62;69.75;101507.48;1769861;80;20967;-80
2021/06/26 03:25:25;;;;;;;11.38;8.13;;;;;;;17.70;69.60;101492.48;1769874;80;20986;-83
2021/06/26 03:27:51;;;;;;;11.88;8.98;;;;;;;17.79;69.54;101491.22;1769744;79;21089;-83
2021/06/26 03:30:21;;;;;;;11.90;8.38;;;;;;;17.88;69.41;101494.40;1769891;80;21069;-83
2021/06/26 03:32:47;;;;;;;10.38;8.03;;;;;;;18.03;69.35;101500.27;1769661;80;22421;-82
2021/06/26 03:35:14;;;;;;;10.82;7.72;;;;;;;18.14;69.08;101497.23;1769866;81;21018;-82
2021/06/26 03:37:41;;;;;;;13.83;7.75;;;;;;;18.30;69.02;101498.64;1770025;80;21499;-82
2021/06/26 03:40:10;;;;;;;10.85;7.58;;;;;;;18.50;69.00;101509.41;1769530;81;39249;-82
2021/06/26 03:42:37;;;;;;;10.20;7.17;;;;;;;18.80;68.99;101512.63;1769521;79;21073;-82
2021/06/26 03:45:06;;;;;;;11.50;7.45;;;;;;;19.21;68.86;101504.75;1769715;80;22585;-81
2021/06/26 03:47:35;;;;;;;11.75;6.87;;;;;;;19.66;68.45;101506.11;1769787;80;21492;-83
2021/06/26 03:50:06;;;;;;;8.98;7.65;;;;;;;20.18;68.11;101510.08;1784167;79;21084;-91
2021/06/26 03:52:33;;;;;;;9.70;7.03;;;;;;;20.55;67.17;101503.70;1788851;78;21756;-86
2021/06/26 03:54:59;;;;;;;11.97;6.95;;;;;;;20.85;66.92;101497.33;1786841;80;21013;-87
2021/06/26 03:57:26;;;;;;;10.75;6.90;;;;;;;21.32;65.92;101495.25;1786856;79;21753;-87
2021/06/26 03:59:53;;;;;;;10.38;6.55;;;;;;;22.29;66.90;101494.39;1787141;80;21037;-86
2021/06/26 04:02:19;;;;;;;7.10;6.40;;;;;;;22.85;64.28;101493.23;1786811;80;20958;-85
2021/06/26 04:04:46;;;;;;;9.03;6.50;;;;;;;23.40;64.37;101493.74;1786903;79;21147;-86
2021/06/26 04:07:13;;;;;;;9.20;6.55;;;;;;;24.86;63.64;101489.20;1786969;80;21517;-86
2021/06/26 04:09:39;;;;;;;8.73;6.62;;;;;;;26.37;62.99;101484.89;1787000;80;21146;-87
2021/06/26 04:12:07;;;;;;;7.33;6.37;;;;;;;28.17;60.46;101475.47;1786950;79;21273;-86
2021/06/26 04:14:34;;;;;;;8.10;6.28;;;;;;;29.45;57.83;101475.40;1787257;80;21131;-90
2021/06/26 04:17:01;;;;;;;10.18;6.20;;;;;;;30.50;55.69;101481.20;1787235;79;21045;-87
2021/06/26 04:19:27;;;;;;;9.95;6.42;;;;;;;30.62;53.78;101472.94;1786553;80;21099;-87
2021/06/26 04:21:54;;;;;;;8.90;6.05;;;;;;;30.87;52.03;101478.55;1785725;79;21822;-86
2021/06/26 04:24:21;;;;;;;8.68;6.53;;;;;;;31.63;51.35;101474.33;1785596;80;21021;-88
2021/06/26 04:26:48;;;;;;;9.48;6.05;;;;;;;32.53;49.98;101474.07;1785283;80;21021;-87
2021/06/26 04:29:14;;;;;;;9.30;5.28;;;;;;;33.38;48.25;101478.31;1785352;80;21064;-85
2021/06/26 04:31:41;;;;;;;9.20;5.97;;;;;;;33.99;47.06;101474.20;1785494;80;21068;-82
2021/06/26 04:34:07;;;;;;;6.08;5.42;;;;;;;34.82;46.23;101476.67;1785223;79;21736;-82
2021/06/26 04:36:35;;;;;;;10.03;5.72;;;;;;;35.66;44.33;101479.30;1786441;80;21511;-85
2021/06/26 04:39:07;;;;;;;6.58;4.70;;;;;;;36.36;42.81;101478.96;1764560;80;21088;-88
2021/06/26 04:41:34;;;;;;;8.35;4.75;;;;;;;37.01;41.76;101475.06;1786826;80;21032;-94
2021/06/26 04:44:01;;;;;;;8.65;4.83;;;;;;;37.74;40.65;101467.19;1786797;80;21042;-86
2021/06/26 04:46:27;;;;;;;5.92;4.20;;;;;;;38.44;39.03;101475.41;1786835;80;22633;-87
2021/06/26 04:48:54;;;;;;;9.58;4.47;;;;;;;38.63;37.53;101470.67;1790837;77;21037;-87
2021/06/26 04:51:22;;;;;;;5.62;4.42;;;;;;;38.95;36.57;101476.27;1836146;78;21023;-88
2021/06/26 04:53:50;;;;;;;7.78;4.03;;;;;;;39.14;35.20;101478.84;1802672;78;21325;-86
2021/06/26 04:56:17;;;;;;;5.50;3.90;;;;;;;39.42;35.18;101472.74;1789982;79;21010;-83
2021/06/26 04:58:43;;;;;;;5.20;3.67;;;;;;;39.75;33.23;101472.72;1799514;79;21157;-85
2021/06/26 05:01:10;;;;;;;7.53;4.47;;;;;;;39.83;33.09;101475.66;1800011;79;20952;-86
2021/06/26 05:03:39;;;;;;;4.05;3.58;;;;;;;40.14;32.29;101476.61;1779093;79;21481;-87
2021/06/26 05:06:05;;;;;;;8.43;3.40;;;;;;;40.15;31.58;101478.84;1802141;79;22802;-86
2021/06/26 05:08:35;;;;;;;7.80;3.70;;;;;;;40.52;31.34;101480.57;1801835;79;21143;-86
2021/06/26 05:11:02;;;;;;;5.20;3.50;;;;;;;41.06;30.69;101478.93;1801490;79;21739;-87
2021/06/26 05:13:30;;;;;;;7.30;3.83;;;;;;;41.47;29.72;101480.57;1802078;79;21531;-88
2021/06/26 05:15:56;;;;;;;5.08;3.67;;;;;;;41.58;29.06;101478.17;1801572;79;21559;-85
2021/06/26 05:18:23;;;;;;;7.92;3.55;;;;;;;41.71;28.43;101477.87;1801387;79;21094;-83
2021/06/26 05:20:50;;;;;;;3.02;2.72;;;;;;;41.75;28.14;101487.12;1801678;79;21015;-84
2021/06/26 05:23:19;;;;;;;3.12;2.83;;;;;;;42.22;27.99;101482.67;1801784;79;21744;-85
2021/06/26 05:25:46;;;;;;;3.30;2.72;;;;;;;42.50;26.83;101482.21;1779762;79;21007;-85
2021/06/26 05:28:12;;;;;;;6.47;2.70;;;;;;;42.36;26.23;101478.52;1801807;79;20996;-86
2021/06/26 05:30:39;;;;;;;3.55;2.55;;;;;;;42.32;25.69;101484.34;1802096;79;21007;-87
2021/06/26 05:33:08;;;;;;;3.52;2.87;;;;;;;41.97;25.25;101479.48;1801759;79;21073;-86
2021/06/26 05:35:35;;;;;;;4.60;3.27;;;;;;;41.80;24.75;101475.59;1801929;79;21927;-84
2021/06/26 05:38:02;;;;;;;5.35;2.85;;;;;;;41.69;24.91;101479.91;1801794;79;21026;-85
2021/06/26 05:40:28;;;;;;;4.60;2.62;;;;;;;42.00;24.90;101470.90;1801781;79;21000;-82
2021/06/26 05:42:55;;;;;;;3.58;2.55;;;;;;;42.32;24.59;101479.34;1801755;79;20993;-85
2021/06/26 05:45:21;;;;;;;4.42;2.47;;;;;;;41.98;23.82;101481.77;1801826;79;20933;-84
2021/06/26 05:47:48;;;;;;;3.55;2.83;;;;;;;39.93;23.65;101475.27;1802106;79;21747;-83
2021/06/26 05:50:15;;;;;;;4.87;3.15;;;;;;;37.71;24.47;101477.06;1800921;79;21038;-84
2021/06/26 05:52:49;;;;;;;4.92;2.70;;;;;;;35.68;25.36;101478.22;1803600;79;21571;-84
2021/06/26 05:55:16;;;;;;;3.45;3.05;;;;;;;33.84;26.29;101481.03;1803604;79;21497;-85
2021/06/26 05:57:43;;;;;;;7.47;2.92;;;;;;;32.17;27.47;101483.28;1803580;79;21179;-87
2021/06/26 06:00:11;;;;;;;4.12;3.30;;;;;;;30.94;28.49;101486.84;1803830;79;21747;-89
2021/06/26 06:02:38;;;;;;;4.97;3.27;;;;;;;29.67;29.43;101483.50;1803557;79;21039;-89
2021/06/26 06:05:08;;;;;;;3.45;3.15;;;;;;;28.57;30.62;101484.81;1803606;79;21011;-92
2021/06/26 06:07:36;;;;;;;4.45;3.62;;;;;;;27.68;31.70;101487.07;1804667;79;21506;-93
2021/06/26 06:10:07;;;;;;;3.92;3.10;;;;;;;27.00;32.72;101481.66;1804622;79;21043;-91
2021/06/26 06:12:34;;;;;;;5.45;3.20;;;;;;;26.53;33.62;101482.64;1804615;79;21765;-92
2021/06/26 06:15:02;;;;;;;4.30;3.50;;;;;;;26.08;34.16;101474.48;1804807;79;21047;-92
2021/06/26 06:17:28;;;;;;;6.08;3.60;;;;;;;25.70;34.93;101479.55;1804459;79;21090;-91
2021/06/26 06:19:55;;;;;;;5.47;3.40;;;;;;;25.25;35.34;101473.94;1804504;79;21553;-92
2021/06/26 06:22:23;;;;;;;4.30;3.72;;;;;;;24.79;35.95;101477.67;1804662;79;20920;-92
2021/06/26 06:24:51;;;;;;;6.92;4.12;;;;;;;24.45;36.53;101478.38;1804479;79;21926;-94
2021/06/26 06:27:18;;;;;;;8.20;3.80;;;;;;;24.12;37.18;101486.23;1782213;79;21027;-95
2021/06/26 06:29:47;;;;;;;4.40;3.67;;;;;;;23.85;37.83;101490.33;1804235;79;20984;-93
2021/06/26 06:32:14;;;;;;;5.20;4.00;;;;;;;23.67;38.31;101487.49;1805022;79;21151;-95
2021/06/26 06:34:41;;;;;;;4.58;3.42;;;;;;;23.47;39.00;101486.02;1804817;79;21547;-92
2021/06/26 06:37:08;;;;;;;4.92;4.08;;;;;;;23.20;39.42;101476.63;1803850;79;22451;-94
2021/06/26 06:39:35;;;;;;;6.00;4.35;;;;;;;23.01;39.83;101489.85;1804586;79;21582;-91
2021/06/26 06:42:01;;;;;;;10.88;4.67;;;;;;;22.80;40.29;101483.00;1754905;79;21041;-94
2021/06/26 06:44:28;;;;;;;5.85;3.65;;;;;;;22.62;41.01;101482.36;1744509;82;21021;-95
2021/06/26 06:46:55;;;;;;;7.20;4.12;;;;;;;22.58;41.52;101482.40;1744556;82;21023;-85
2021/06/26 06:49:22;;;;;;;5.10;4.22;;;;;;;22.57;41.52;101490.03;1744389;79;22562;-93
2021/06/26 06:51:48;;;;;;;5.80;3.95;;;;;;;22.38;41.67;101484.89;1797985;79;21003;-89
2021/06/26 06:54:15;;;;;;;6.72;4.78;;;;;;;22.32;42.53;101499.27;1798219;79;20984;-90
2021/06/26 06:56:42;;;;;;;13.18;4.80;;;;;;;22.32;42.53;101499.27;1798219;79;21011;-94
2021/06/26 06:59:08;;;;;;;6.78;4.45;;;;;;;22.31;43.34;101495.26;1798391;79;20996;-93
2021/06/26 07:01:35;;;;;;;5.30;4.80;;;;;;;22.31;43.34;101495.26;1798329;79;21759;-93
2021/06/26 07:04:02;;;;;;;6.05;5.00;;;;;;;22.53;43.57;101494.55;1798589;79;21063;-94
2021/06/26 07:06:29;;;;;;;4.92;3.95;;;;;;;22.53;43.57;101494.55;1798482;79;21050;-95
2021/06/26 07:08:55;;;;;;;10.82;5.62;;;;;;;22.61;43.25;101490.42;1770954;79;21819;-94
2021/06/26 07:11:22;;;;;;;7.75;5.00;;;;;;;22.70;43.18;101492.98;1798468;79;20976;-95
2021/06/26 07:13:49;;;;;;;5.90;4.62;;;;;;;22.61;42.65;101492.64;1798421;79;22079;-96
2021/06/26 07:16:15;;;;;;;7.92;5.03;;;;;;;22.40;43.21;101469.66;1798378;79;21019;-94
2021/06/26 07:18:42;;;;;;;6.35;4.55;;;;;;;22.49;43.33;101496.84;1798337;79;20977;-94
2021/06/26 07:21:09;;;;;;;7.50;4.33;;;;;;;22.49;43.33;101496.84;1798228;79;21243;-95
2021/06/26 07:23:39;;;;;;;6.40;3.83;;;;;;;22.54;43.84;101500.33;1798380;79;20976;-94
2021/06/26 07:26:05;;;;;;;5.70;4.60;;;;;;;22.60;43.73;101488.63;1798467;79;21849;-95
2021/06/26 07:28:32;;;;;;;7.85;4.50;;;;;;;22.66;43.54;101492.13;1798244;79;21513;-95
2021/06/26 07:30:58;;;;;;;10.70;4.42;;;;;;;22.65;43.86;101473.36;1798328;79;20979;-94
2021/06/26 07:33:25;;;;;;;9.35;4.62;;;;;;;22.96;43.70;101487.72;1798351;79;21035;-84
2021/06/26 07:35:52;;;;;;;5.90;3.95;;;;;;;;;;1798243;79;21469;-93
2021/06/26 07:38:18;;;;;;;6.17;4.42;;;;;;;23.20;43.40;101486.03;1798887;79;22580;-93
2021/06/26 07:40:45;;;;;;;5.97;4.00;;;;;;;23.26;42.75;101485.92;1798392;79;21058;-93
2021/06/26 07:43:12;;;;;;;4.80;4.28;;;;;;;23.26;42.68;101488.61;1798321;79;21485;-93
2021/06/26 07:45:38;;;;;;;4.42;4.03;;;;;;;23.29;42.82;101483.63;1798978;79;20945;-93
2021/06/26 07:48:05;;;;;;;4.50;3.92;;;;;;;23.51;43.22;101486.86;1798125;79;20957;-90
2021/06/26 07:50:32;;;;;;;5.08;3.92;;;;;;;23.83;43.41;101481.41;1785567;78;22604;-87
2021/06/26 07:52:59;;;;;;;8.03;3.90;;;;;;;24.22;43.32;101476.17;1744402;80;21940;-89
2021/06/26 07:55:34;;;;;;;7.25;4.65;;;;;;;24.61;43.07;101479.86;1772585;81;21554;-90
2021/06/26 07:58:00;;;;;;;5.12;4.53;;;;;;;24.84;42.53;101484.73;1765091;81;20987;-90
2021/06/26 08:00:40;;;;;;;7.05;4.95;;;;;;;24.91;41.82;101485.48;1764796;81;21532;-90
2021/06/26 08:03:15;;;;;;;6.95;4.25;;;;;;;24.82;41.99;101485.70;1768474;79;23081;-90
2021/06/26 08:05:41;;;;;;;6.90;4.45;;;;;;;24.76;42.37;101484.03;1765089;80;21081;-90
2021/06/26 08:08:08;;;;;;;6.03;4.50;;;;;;;24.72;42.56;101491.75;1764924;81;21575;-90
2021/06/26 08:10:35;;;;;;;6.85;4.55;;;;;;;24.88;42.69;101493.63;1772703;80;21192;-90
2021/06/26 08:13:01;;;;;;;6.30;4.00;;;;;;;25.18;42.58;101492.48;1772492;81;21073;-90
2021/06/26 08:15:28;;;;;;;5.83;4.33;;;;;;;25.43;40.98;101498.66;1772617;80;21430;-91
2021/06/26 08:17:55;;;;;;;4.47;3.58;;;;;;;25.50;40.43;101494.89;1745065;80;21049;-91
2021/06/26 08:20:23;;;;;;;6.15;4.08;;;;;;;25.44;40.03;101491.88;1771968;81;21069;-90
2021/06/26 08:22:50;;;;;;;4.67;3.87;;;;;;;25.32;39.95;101494.43;1764867;80;21511;-90
2021/06/26 08:25:33;;;;;;;8.73;5.00;;;;;;;25.12;39.93;101489.48;1765066;81;21058;-91
2021/06/26 08:31:41;;;;;;;7.92;5.58;;;;;;;25.12;40.54;101484.56;1718785;83;21014;-91
2021/06/26 08:34:10;;;;;;;7.10;5.22;;;;;;;25.26;40.06;101495.91;1719181;83;21306;-91
2021/06/26 08:36:37;;;;;;;5.62;3.83;;;;;;;25.19;40.17;101501.02;1719369;83;22271;-91
2021/06/26 08:39:04;;;;;;;5.53;4.80;;;;;;;25.18;40.18;101503.27;1719375;83;21124;-91
2021/06/26 08:41:31;;;;;;;4.33;3.80;;;;;;;25.21;40.06;101497.81;1719395;83;22324;-91
2021/06/26 08:43:59;;;;;;;5.87;4.08;;;;;;;25.24;39.80;101498.22;1718807;82;21498;-91
2021/06/26 08:46:27;;;;;;;4.97;4.50;;;;;;;25.19;39.61;101496.97;1719237;83;21002;-91
2021/06/26 08:48:53;;;;;;;4.35;3.58;;;;;;;25.03;39.56;101497.78;1719312;83;21076;-90
2021/06/26 08:51:23;;;;;;;5.35;4.00;;;;;;;24.81;39.49;101498.28;1718806;83;21120;-91
2021/06/26 08:53:52;;;;;;;7.10;3.72;;;;;;;24.62;39.58;101488.34;1719031;83;22746;-92
2021/06/26 08:56:19;;;;;;;6.50;3.98;;;;;;;24.56;39.99;101491.66;1719016;82;21546;-92
2021/06/26 08:58:45;;;;;;;7.85;5.25;;;;;;;24.77;40.43;101493.86;1743948;80;21646;-91
2021/06/26 09:01:12;;;;;;;7.05;3.65;;;;;;;25.08;40.26;101492.30;1781877;80;21107;-91
2021/06/26 09:03:41;;;;;;;5.65;4.25;;;;;;;25.32;39.68;101494.43;1781491;80;20919;-91
2021/06/26 09:06:12;;;;;;;5.67;4.00;;;;;;;25.45;39.25;101490.06;1779322;79;21708;-91
2021/06/26 09:08:51;;;;;;;6.75;4.85;;;;;;;25.34;38.88;101498.41;1780451;79;21053;-91
2021/06/26 09:11:23;;;;;;;6.97;4.53;;;;;;;25.30;38.94;101490.89;1781713;80;21010;-89
2021/06/26 09:13:47;;;;;;;7.20;3.52;;;;;;;25.22;38.72;101494.18;1779449;79;21180;-89
2021/06/26 09:16:17;;;;;;;3.65;3.35;;;;;;;25.12;38.77;101493.99;1781847;80;21046;-89
2021/06/26 09:18:50;;;;;;;6.80;5.12;;;;;;;25.16;38.87;101494.34;1781853;80;21796;-89
2021/06/26 09:21:30;;;;;;;;;;;;;;;25.37;39.04;101493.83;1784035;80;21011;-89
2021/06/26 09:24:08;;;;;;;4.97;4.50;;;;;;;25.60;38.98;101504.05;1782075;79;20148;-89
2021/06/26 09:26:42;;;;;;;5.47;4.70;;;;;;;25.64;38.70;101511.61;1759779;80;21093;-89
2021/06/26 09:29:12;;;;;;;4.90;3.75;;;;;;;25.41;38.31;101508.12;1779047;78;21006;-89
2021/06/26 09:31:54;;;;;;;4.20;3.42;;;;;;;25.20;38.69;101511.72;1782051;80;21767;-89
2021/06/26 09:34:23;;;;;;;6.37;4.28;;;;;;;25.10;38.41;101507.96;1761986;79;21042;-89
2021/06/26 09:37:05;;;;;;;6.42;3.80;;;;;;;24.86;38.40;101514.79;1781773;80;20996;-89
2021/06/26 09:39:39;;;;;;;5.00;3.35;;;;;;;24.66;38.81;101515.22;1781221;79;21085;-89
2021/06/26 09:42:22;;;;;;;4.60;3.98;;;;;;;24.66;39.28;101508.48;1782059;80;21471;-89
2021/06/26 09:45:03;;;;;;;5.07;3.93;;;;;;;24.82;39.40;101501.38;1769457;78;21810;-89
2021/06/26 09:47:46;;;;;;;8.45;4.00;;;;;;;24.95;39.44;101505.16;1781288;80;21441;-89
2021/06/26 09:50:26;;;;;;;6.25;3.35;;;;;;;25.14;39.43;101500.22;1781771;80;21038;-89
2021/06/26 09:53:04;;;;;;;5.60;3.62;;;;;;;25.34;39.02;101501.10;1772327;80;21543;-89
2021/06/26 09:55:46;;;;;;;7.37;3.60;;;;;;;25.43;38.86;101502.22;1772800;81;20990;-89
2021/06/26 09:58:11;;;;;;;3.60;3.27;;;;;;;25.51;38.82;101497.98;1771622;80;21822;-89
2021/06/26 10:01:11;;;;;;;8.58;4.20;;;;;;;25.70;38.95;101500.66;1772392;81;21002;-89
2021/06/26 10:04:05;;;;;;;3.92;3.52;;;;;;;25.77;38.70;101500.92;1679221;85;21026;-89
2021/06/26 10:06:35;;;;;;;5.17;4.12;;;;;;;25.66;38.53;101503.45;1583042;88;21112;-89
2021/06/26 10:09:04;;;;;;;6.75;3.52;;;;;;;25.40;38.46;101495.58;1602304;89;21226;-89
2021/06/26 10:11:32;;;;;;;4.25;3.30;;;;;;;25.25;38.66;101502.70;1602271;89;21792;-89
2021/06/26 10:14:06;;;;;;;6.58;3.90;;;;;;;25.22;38.49;101507.19;1602169;89;21037;-90
2021/06/26 10:16:47;;;;;;;3.60;3.20;;;;;;;25.32;38.78;101510.60;1601570;89;21113;-89
2021/06/26 10:19:17;;;;;;;5.65;3.50;;;;;;;25.36;38.17;101508.25;1597361;89;21061;-89
2021/06/26 10:21:44;;;;;;;9.48;4.03;;;;;;;25.19;37.99;101512.66;1602286;89;21281;-89
2021/06/26 10:24:14;;;;;;;6.37;3.55;;;;;;;24.95;38.46;101495.27;1602674;89;21762;-89
2021/06/26 10:26:42;;;;;;;6.17;4.00;;;;;;;25.07;38.40;101517.45;1602204;89;21135;-89
2021/06/26 10:29:09;;;;;;;4.10;3.65;;;;;;;25.16;38.74;101510.03;1602101;88;21243;-89
2021/06/26 10:31:43;;;;;;;5.17;4.10;;;;;;;25.40;38.87;101505.89;1602110;89;21397;-89
2021/06/26 10:34:22;;;;;;;4.85;3.77;;;;;;;25.60;38.73;101505.84;1601144;89;21081;-89
2021/06/26 10:36:54;;;;;;;10.30;4.05;;;;;;;25.78;38.20;101513.46;1605628;85;21862;-89
2021/06/26 10:39:26;;;;;;;4.42;3.35;;;;;;;25.72;38.22;101510.05;1652818;85;21428;-89
2021/06/26 10:42:04;;;;;;;5.17;3.83;;;;;;;25.97;37.82;101504.44;1684381;83;21074;-89
2021/06/26 10:44:52;;;;;;;4.53;3.20;;;;;;;26.05;37.80;101511.45;1754782;80;21124;-90
2021/06/26 10:47:37;;;;;;;4.75;3.27;;;;;;;26.31;37.75;101507.55;1772853;81;21454;-90
2021/06/26 10:50:18;;;;;;;5.28;2.60;;;;;;;26.60;37.26;101499.55;1770948;80;21786;-89
2021/06/26 10:52:56;;;;;;;3.83;3.02;;;;;;;26.63;36.61;101502.17;1765338;80;21657;-89
2021/06/26 10:55:36;;;;;;;4.53;3.20;;;;;;;26.42;36.42;101496.92;1764118;81;21117;-95
2021/06/26 10:58:04;;;;;;;5.78;3.58;;;;;;;26.22;36.05;101500.19;1772666;80;21085;-87
2021/06/26 11:00:39;;;;;;;4.97;3.60;;;;;;;26.16;36.34;101497.19;1772071;81;21021;-88
2021/06/26 11:03:09;;;;;;;5.47;4.67;;;;;;;26.31;36.60;101499.45;1772422;81;21758;-87
2021/06/26 11:05:36;;;;;;;4.50;3.30;;;;;;;26.49;36.47;101487.24;1770146;80;21076;-87
2021/06/26 11:08:21;;;;;;;3.98;3.33;;;;;;;26.75;36.16;101485.14;1772259;81;21086;-87
2021/06/26 11:11:01;;;;;;;6.05;4.53;;;;;;;26.83;35.89;101488.95;1771415;81;21085;-88
2021/06/26 11:13:29;;;;;;;7.62;3.08;;;;;;;26.85;36.03;101484.37;1772562;81;21087;-88
2021/06/26 11:16:07;;;;;;;5.08;3.33;;;;;;;26.88;35.54;101492.84;1772426;81;21822;-88
2021/06/26 11:18:33;;;;;;;6.40;3.20;;;;;;;26.60;35.31;101484.70;1772307;80;21526;-88
2021/06/26 11:21:00;;;;;;;3.37;3.08;;;;;;;26.17;34.93;101482.79;1771799;80;21002;-87
2021/06/26 11:23:27;;;;;;;3.95;3.27;;;;;;;25.82;35.35;101477.86;1772028;81;21077;-87
2021/06/26 11:26:02;;;;;;;8.33;3.70;;;;;;;25.68;35.65;101480.94;1772561;81;21045;-87
2021/06/26 11:28:29;;;;;;;4.33;3.12;;;;;;;25.55;35.84;101483.53;1772470;79;21738;-87
2021/06/26 11:31:01;;;;;;;6.30;3.80;;;;;;;25.44;35.75;101481.10;1771979;81;20998;-87
2021/06/26 11:33:32;;;;;;;7.28;4.25;;;;;;;25.48;35.78;101481.91;1772227;81;21025;-87
2021/06/26 11:35:59;;;;;;;4.00;3.17;;;;;;;25.44;35.78;101477.53;1772400;81;21174;-87